sensor_id;sensor_type;location;lat;lon;timestamp;P1;durP1;ratioP1;P2;durP2;ratioP2
6292;SDS011;3179;54.350;10.102;2022-12-16T00:02:20;24.77;;;18.73;;
6292;SDS011;3179;54.350;10.102;2022-12-16T00:04:48;27.80;;;19.00;;
6292;SDS011;3179;54.350;10.102;2022-12-16T00:07:15;25.00;;;19.00;;
6292;SDS011;3179;54.350;10.102;2022-12-16T00:09:42;24.60;;;19.10;;
6292;SDS011;3179;54.350;10.102;2022-12-16T00:12:08;24.63;;;18.77;;
6292;SDS011;3179;54.350;10.102;2022-12-16T00:14:35;23.13;;;15.83;;
6292;SDS011;3179;54.350;10.102;2022-12-16T00:17:02;25.30;;;16.40;;
6292;SDS011;3179;54.350;10.102;2022-12-16T00:19:29;21.73;;;17.33;;
6292;SDS011;3179;54.350;10.102;2022-12-16T00:21:57;25.73;;;17.63;;
6292;SDS011;3179;54.350;10.102;2022-12-16T00:24:24;22.03;;;17.80;;
6292;SDS011;3179;54.350;10.102;2022-12-16T00:26:51;24.00;;;19.07;;
6292;SDS011;3179;54.350;10.102;2022-12-16T00:29:18;22.87;;;16.93;;
6292;SDS011;3179;54.350;10.102;2022-12-16T00:31:44;23.63;;;17.93;;
6292;SDS011;3179;54.350;10.102;2022-12-16T00:34:12;23.70;;;18.50;;
6292;SDS011;3179;54.350;10.102;2022-12-16T00:36:39;22.73;;;18.30;;
6292;SDS011;3179;54.350;10.102;2022-12-16T00:39:07;20.83;;;15.57;;
6292;SDS011;3179;54.350;10.102;2022-12-16T00:41:34;23.43;;;18.33;;
6292;SDS011;3179;54.350;10.102;2022-12-16T00:44:01;21.97;;;15.83;;
6292;SDS011;3179;54.350;10.102;2022-12-16T00:46:29;21.10;;;17.17;;
6292;SDS011;3179;54.350;10.102;2022-12-16T00:48:55;23.20;;;18.10;;
6292;SDS011;3179;54.350;10.102;2022-12-16T00:51:22;24.27;;;18.30;;
6292;SDS011;3179;54.350;10.102;2022-12-16T00:53:49;22.33;;;16.13;;
6292;SDS011;3179;54.350;10.102;2022-12-16T00:56:17;22.87;;;17.13;;
6292;SDS011;3179;54.350;10.102;2022-12-16T00:58:44;25.10;;;18.13;;
6292;SDS011;3179;54.350;10.102;2022-12-16T01:01:12;24.33;;;18.30;;
6292;SDS011;3179;54.350;10.102;2022-12-16T01:03:38;20.50;;;15.90;;
6292;SDS011;3179;54.350;10.102;2022-12-16T01:06:06;23.33;;;17.90;;
6292;SDS011;3179;54.350;10.102;2022-12-16T01:08:34;22.83;;;18.20;;
6292;SDS011;3179;54.350;10.102;2022-12-16T01:11:01;25.47;;;18.57;;
6292;SDS011;3179;54.350;10.102;2022-12-16T01:13:29;24.83;;;17.67;;
6292;SDS011;3179;54.350;10.102;2022-12-16T01:15:58;24.40;;;18.43;;
6292;SDS011;3179;54.350;10.102;2022-12-16T01:18:25;22.63;;;16.90;;
6292;SDS011;3179;54.350;10.102;2022-12-16T01:20:52;21.63;;;16.37;;
6292;SDS011;3179;54.350;10.102;2022-12-16T01:23:19;24.20;;;18.30;;
6292;SDS011;3179;54.350;10.102;2022-12-16T01:25:47;23.90;;;18.33;;
6292;SDS011;3179;54.350;10.102;2022-12-16T01:28:17;23.53;;;18.40;;
6292;SDS011;3179;54.350;10.102;2022-12-16T01:30:45;22.20;;;17.33;;
6292;SDS011;3179;54.350;10.102;2022-12-16T01:33:12;24.63;;;18.57;;
6292;SDS011;3179;54.350;10.102;2022-12-16T01:35:39;24.33;;;17.13;;
6292;SDS011;3179;54.350;10.102;2022-12-16T01:38:05;25.40;;;17.60;;
6292;SDS011;3179;54.350;10.102;2022-12-16T01:40:32;23.20;;;18.00;;
6292;SDS011;3179;54.350;10.102;2022-12-16T01:42:59;24.53;;;18.77;;
6292;SDS011;3179;54.350;10.102;2022-12-16T01:45:29;21.83;;;17.03;;
6292;SDS011;3179;54.350;10.102;2022-12-16T01:48:00;22.00;;;17.10;;
6292;SDS011;3179;54.350;10.102;2022-12-16T01:50:31;20.60;;;16.97;;
6292;SDS011;3179;54.350;10.102;2022-12-16T01:52:58;22.50;;;17.77;;
6292;SDS011;3179;54.350;10.102;2022-12-16T01:55:29;23.37;;;15.87;;
6292;SDS011;3179;54.350;10.102;2022-12-16T01:58:00;23.10;;;18.27;;
6292;SDS011;3179;54.350;10.102;2022-12-16T02:00:31;22.90;;;18.10;;
6292;SDS011;3179;54.350;10.102;2022-12-16T02:02:59;23.20;;;15.90;;
6292;SDS011;3179;54.350;10.102;2022-12-16T02:05:27;24.90;;;18.30;;
6292;SDS011;3179;54.350;10.102;2022-12-16T02:07:55;24.67;;;17.67;;
6292;SDS011;3179;54.350;10.102;2022-12-16T02:10:27;22.63;;;18.33;;
6292;SDS011;3179;54.350;10.102;2022-12-16T02:13:04;20.60;;;16.00;;
6292;SDS011;3179;54.350;10.102;2022-12-16T02:15:41;21.70;;;17.63;;
6292;SDS011;3179;54.350;10.102;2022-12-16T02:18:20;22.80;;;17.57;;
6292;SDS011;3179;54.350;10.102;2022-12-16T02:24:02;23.90;;;18.13;;
6292;SDS011;3179;54.350;10.102;2022-12-16T02:27:00;23.20;;;18.70;;
6292;SDS011;3179;54.350;10.102;2022-12-16T02:32:49;28.77;;;19.83;;
6292;SDS011;3179;54.350;10.102;2022-12-16T02:35:23;22.83;;;18.40;;
6292;SDS011;3179;54.350;10.102;2022-12-16T02:37:58;25.70;;;19.23;;
6292;SDS011;3179;54.350;10.102;2022-12-16T02:40:35;24.57;;;19.63;;
6292;SDS011;3179;54.350;10.102;2022-12-16T02:43:07;24.07;;;18.93;;
6292;SDS011;3179;54.350;10.102;2022-12-16T02:45:41;24.33;;;17.00;;
6292;SDS011;3179;54.350;10.102;2022-12-16T02:48:09;21.87;;;16.03;;
6292;SDS011;3179;54.350;10.102;2022-12-16T02:50:38;24.17;;;17.70;;
6292;SDS011;3179;54.350;10.102;2022-12-16T02:53:07;25.17;;;18.93;;
6292;SDS011;3179;54.350;10.102;2022-12-16T02:55:39;23.03;;;15.60;;
6292;SDS011;3179;54.350;10.102;2022-12-16T02:58:21;28.17;;;18.27;;
6292;SDS011;3179;54.350;10.102;2022-12-16T03:00:55;25.83;;;17.30;;
6292;SDS011;3179;54.350;10.102;2022-12-16T03:03:29;23.03;;;16.47;;
6292;SDS011;3179;54.350;10.102;2022-12-16T03:06:01;21.87;;;16.63;;
6292;SDS011;3179;54.350;10.102;2022-12-16T03:08:31;25.03;;;18.30;;
6292;SDS011;3179;54.350;10.102;2022-12-16T03:11:02;24.13;;;18.67;;
6292;SDS011;3179;54.350;10.102;2022-12-16T03:13:32;21.53;;;16.73;;
6292;SDS011;3179;54.350;10.102;2022-12-16T03:16:03;20.77;;;16.30;;
6292;SDS011;3179;54.350;10.102;2022-12-16T03:18:32;23.17;;;18.40;;
6292;SDS011;3179;54.350;10.102;2022-12-16T03:21:01;21.90;;;18.03;;
6292;SDS011;3179;54.350;10.102;2022-12-16T03:23:31;23.07;;;17.17;;
6292;SDS011;3179;54.350;10.102;2022-12-16T03:26:05;18.90;;;14.30;;
6292;SDS011;3179;54.350;10.102;2022-12-16T03:28:38;19.20;;;15.07;;
6292;SDS011;3179;54.350;10.102;2022-12-16T03:31:12;24.40;;;17.33;;
6292;SDS011;3179;54.350;10.102;2022-12-16T03:33:46;21.50;;;16.30;;
6292;SDS011;3179;54.350;10.102;2022-12-16T03:36:19;19.10;;;14.80;;
6292;SDS011;3179;54.350;10.102;2022-12-16T03:38:48;23.63;;;16.87;;
6292;SDS011;3179;54.350;10.102;2022-12-16T03:41:15;22.87;;;17.43;;
6292;SDS011;3179;54.350;10.102;2022-12-16T03:43:45;20.63;;;14.73;;
6292;SDS011;3179;54.350;10.102;2022-12-16T03:46:14;22.77;;;16.03;;
6292;SDS011;3179;54.350;10.102;2022-12-16T03:48:45;23.20;;;17.60;;
6292;SDS011;3179;54.350;10.102;2022-12-16T03:51:13;21.70;;;14.57;;
6292;SDS011;3179;54.350;10.102;2022-12-16T03:53:40;21.40;;;14.93;;
6292;SDS011;3179;54.350;10.102;2022-12-16T03:56:07;18.83;;;13.90;;
6292;SDS011;3179;54.350;10.102;2022-12-16T03:58:34;17.00;;;12.50;;
6292;SDS011;3179;54.350;10.102;2022-12-16T04:01:03;19.47;;;13.30;;
6292;SDS011;3179;54.350;10.102;2022-12-16T04:03:32;17.43;;;12.93;;
6292;SDS011;3179;54.350;10.102;2022-12-16T04:05:59;17.90;;;12.97;;
6292;SDS011;3179;54.350;10.102;2022-12-16T04:08:25;18.27;;;13.33;;
6292;SDS011;3179;54.350;10.102;2022-12-16T04:10:52;14.80;;;12.50;;
6292;SDS011;3179;54.350;10.102;2022-12-16T04:13:36;20.40;;;12.57;;
6292;SDS011;3179;54.350;10.102;2022-12-16T04:16:32;13.07;;;9.80;;
6292;SDS011;3179;54.350;10.102;2022-12-16T04:19:20;12.00;;;8.90;;
6292;SDS011;3179;54.350;10.102;2022-12-16T04:22:09;13.83;;;9.63;;
6292;SDS011;3179;54.350;10.102;2022-12-16T04:24:57;11.10;;;9.60;;
6292;SDS011;3179;54.350;10.102;2022-12-16T04:27:27;11.27;;;8.03;;
6292;SDS011;3179;54.350;10.102;2022-12-16T04:29:54;8.77;;;7.03;;
6292;SDS011;3179;54.350;10.102;2022-12-16T04:32:38;9.97;;;7.23;;
6292;SDS011;3179;54.350;10.102;2022-12-16T04:35:23;8.87;;;6.07;;
6292;SDS011;3179;54.350;10.102;2022-12-16T04:38:07;10.00;;;6.90;;
6292;SDS011;3179;54.350;10.102;2022-12-16T04:40:52;7.83;;;6.70;;
6292;SDS011;3179;54.350;10.102;2022-12-16T04:43:36;11.43;;;6.40;;
6292;SDS011;3179;54.350;10.102;2022-12-16T04:46:20;11.47;;;6.40;;
6292;SDS011;3179;54.350;10.102;2022-12-16T04:49:05;10.27;;;7.17;;
6292;SDS011;3179;54.350;10.102;2022-12-16T04:51:51;8.93;;;6.27;;
6292;SDS011;3179;54.350;10.102;2022-12-16T04:54:35;9.80;;;6.80;;
6292;SDS011;3179;54.350;10.102;2022-12-16T04:57:19;10.67;;;6.30;;
6292;SDS011;3179;54.350;10.102;2022-12-16T05:00:03;8.27;;;5.83;;
6292;SDS011;3179;54.350;10.102;2022-12-16T05:02:48;9.00;;;6.30;;
6292;SDS011;3179;54.350;10.102;2022-12-16T05:05:33;7.67;;;6.27;;
6292;SDS011;3179;54.350;10.102;2022-12-16T05:08:19;10.03;;;6.57;;
6292;SDS011;3179;54.350;10.102;2022-12-16T05:11:04;12.73;;;6.73;;
6292;SDS011;3179;54.350;10.102;2022-12-16T05:13:48;6.43;;;5.67;;
6292;SDS011;3179;54.350;10.102;2022-12-16T05:16:33;7.50;;;5.60;;
6292;SDS011;3179;54.350;10.102;2022-12-16T05:19:17;7.60;;;6.27;;
6292;SDS011;3179;54.350;10.102;2022-12-16T05:22:01;9.73;;;6.73;;
6292;SDS011;3179;54.350;10.102;2022-12-16T05:24:46;9.60;;;6.53;;
6292;SDS011;3179;54.350;10.102;2022-12-16T05:27:30;7.70;;;6.30;;
6292;SDS011;3179;54.350;10.102;2022-12-16T05:30:15;9.10;;;7.13;;
6292;SDS011;3179;54.350;10.102;2022-12-16T05:32:59;9.00;;;6.37;;
6292;SDS011;3179;54.350;10.102;2022-12-16T05:35:44;10.37;;;6.43;;
6292;SDS011;3179;54.350;10.102;2022-12-16T05:38:28;10.57;;;6.00;;
6292;SDS011;3179;54.350;10.102;2022-12-16T05:41:13;9.57;;;6.70;;
6292;SDS011;3179;54.350;10.102;2022-12-16T05:43:57;8.83;;;6.43;;
6292;SDS011;3179;54.350;10.102;2022-12-16T05:46:41;9.80;;;6.70;;
6292;SDS011;3179;54.350;10.102;2022-12-16T05:49:26;7.47;;;5.97;;
6292;SDS011;3179;54.350;10.102;2022-12-16T05:52:10;9.90;;;6.30;;
6292;SDS011;3179;54.350;10.102;2022-12-16T05:55:02;8.40;;;6.00;;
6292;SDS011;3179;54.350;10.102;2022-12-16T05:57:49;6.87;;;5.10;;
6292;SDS011;3179;54.350;10.102;2022-12-16T06:00:34;8.63;;;4.97;;
6292;SDS011;3179;54.350;10.102;2022-12-16T06:03:18;8.33;;;5.67;;
6292;SDS011;3179;54.350;10.102;2022-12-16T06:06:01;8.00;;;4.93;;
6292;SDS011;3179;54.350;10.102;2022-12-16T06:08:45;7.40;;;5.13;;
6292;SDS011;3179;54.350;10.102;2022-12-16T06:11:29;5.60;;;4.73;;
6292;SDS011;3179;54.350;10.102;2022-12-16T06:14:15;8.27;;;5.80;;
6292;SDS011;3179;54.350;10.102;2022-12-16T06:16:59;8.53;;;5.20;;
6292;SDS011;3179;54.350;10.102;2022-12-16T06:19:43;6.30;;;5.67;;
6292;SDS011;3179;54.350;10.102;2022-12-16T06:22:27;8.07;;;5.30;;
6292;SDS011;3179;54.350;10.102;2022-12-16T06:25:14;10.20;;;6.60;;
6292;SDS011;3179;54.350;10.102;2022-12-16T06:27:58;10.13;;;6.40;;
6292;SDS011;3179;54.350;10.102;2022-12-16T06:30:43;8.30;;;6.70;;
6292;SDS011;3179;54.350;10.102;2022-12-16T06:33:28;7.10;;;5.60;;
6292;SDS011;3179;54.350;10.102;2022-12-16T06:36:12;8.80;;;5.80;;
6292;SDS011;3179;54.350;10.102;2022-12-16T06:38:56;9.00;;;6.70;;
6292;SDS011;3179;54.350;10.102;2022-12-16T06:41:40;9.73;;;6.63;;
6292;SDS011;3179;54.350;10.102;2022-12-16T06:44:24;8.90;;;7.37;;
6292;SDS011;3179;54.350;10.102;2022-12-16T06:47:10;12.67;;;7.97;;
6292;SDS011;3179;54.350;10.102;2022-12-16T06:49:54;10.43;;;7.13;;
6292;SDS011;3179;54.350;10.102;2022-12-16T06:52:39;8.37;;;6.23;;
6292;SDS011;3179;54.350;10.102;2022-12-16T06:55:24;10.37;;;7.60;;
6292;SDS011;3179;54.350;10.102;2022-12-16T06:58:09;8.57;;;6.80;;
6292;SDS011;3179;54.350;10.102;2022-12-16T07:00:53;10.73;;;7.30;;
6292;SDS011;3179;54.350;10.102;2022-12-16T07:03:38;9.63;;;7.43;;
6292;SDS011;3179;54.350;10.102;2022-12-16T07:06:22;11.77;;;7.50;;
6292;SDS011;3179;54.350;10.102;2022-12-16T07:09:06;11.70;;;7.07;;
6292;SDS011;3179;54.350;10.102;2022-12-16T07:11:50;10.40;;;7.20;;
6292;SDS011;3179;54.350;10.102;2022-12-16T07:14:35;10.17;;;6.93;;
6292;SDS011;3179;54.350;10.102;2022-12-16T07:17:19;9.17;;;6.60;;
6292;SDS011;3179;54.350;10.102;2022-12-16T07:20:05;8.73;;;6.87;;
6292;SDS011;3179;54.350;10.102;2022-12-16T07:22:50;8.50;;;6.70;;
6292;SDS011;3179;54.350;10.102;2022-12-16T07:25:34;12.63;;;6.30;;
6292;SDS011;3179;54.350;10.102;2022-12-16T07:28:18;8.10;;;6.73;;
6292;SDS011;3179;54.350;10.102;2022-12-16T07:31:02;10.03;;;6.33;;
6292;SDS011;3179;54.350;10.102;2022-12-16T07:33:46;10.70;;;6.50;;
6292;SDS011;3179;54.350;10.102;2022-12-16T07:36:32;14.07;;;6.67;;
6292;SDS011;3179;54.350;10.102;2022-12-16T07:39:16;8.20;;;5.83;;
6292;SDS011;3179;54.350;10.102;2022-12-16T07:42:00;9.00;;;6.80;;
6292;SDS011;3179;54.350;10.102;2022-12-16T07:44:44;9.20;;;6.77;;
6292;SDS011;3179;54.350;10.102;2022-12-16T07:47:28;8.77;;;6.10;;
6292;SDS011;3179;54.350;10.102;2022-12-16T07:50:12;9.00;;;6.17;;
6292;SDS011;3179;54.350;10.102;2022-12-16T07:52:58;7.47;;;6.07;;
6292;SDS011;3179;54.350;10.102;2022-12-16T07:55:43;7.20;;;5.60;;
6292;SDS011;3179;54.350;10.102;2022-12-16T07:58:28;6.67;;;4.77;;
6292;SDS011;3179;54.350;10.102;2022-12-16T08:01:13;7.87;;;4.60;;
6292;SDS011;3179;54.350;10.102;2022-12-16T08:03:57;9.20;;;5.63;;
6292;SDS011;3179;54.350;10.102;2022-12-16T08:06:41;7.87;;;5.43;;
6292;SDS011;3179;54.350;10.102;2022-12-16T08:09:27;7.20;;;4.40;;
6292;SDS011;3179;54.350;10.102;2022-12-16T08:12:12;8.67;;;5.47;;
6292;SDS011;3179;54.350;10.102;2022-12-16T08:14:57;6.40;;;5.13;;
6292;SDS011;3179;54.350;10.102;2022-12-16T08:17:41;7.23;;;5.50;;
6292;SDS011;3179;54.350;10.102;2022-12-16T08:20:30;7.00;;;5.23;;
6292;SDS011;3179;54.350;10.102;2022-12-16T08:23:14;5.70;;;4.67;;
6292;SDS011;3179;54.350;10.102;2022-12-16T08:25:59;10.40;;;5.10;;
6292;SDS011;3179;54.350;10.102;2022-12-16T08:28:43;5.17;;;4.20;;
6292;SDS011;3179;54.350;10.102;2022-12-16T08:31:27;7.43;;;4.00;;
6292;SDS011;3179;54.350;10.102;2022-12-16T08:34:12;6.43;;;4.70;;
6292;SDS011;3179;54.350;10.102;2022-12-16T08:37:04;6.83;;;4.70;;
6292;SDS011;3179;54.350;10.102;2022-12-16T08:39:48;6.20;;;4.80;;
6292;SDS011;3179;54.350;10.102;2022-12-16T08:42:34;9.00;;;5.30;;
6292;SDS011;3179;54.350;10.102;2022-12-16T08:45:18;5.10;;;4.47;;
6292;SDS011;3179;54.350;10.102;2022-12-16T08:48:03;8.43;;;5.27;;
6292;SDS011;3179;54.350;10.102;2022-12-16T08:50:47;8.20;;;5.90;;
6292;SDS011;3179;54.350;10.102;2022-12-16T08:53:32;7.43;;;5.90;;
6292;SDS011;3179;54.350;10.102;2022-12-16T08:56:16;6.83;;;4.87;;
6292;SDS011;3179;54.350;10.102;2022-12-16T08:59:02;7.57;;;4.33;;
6292;SDS011;3179;54.350;10.102;2022-12-16T09:01:47;6.27;;;5.10;;
6292;SDS011;3179;54.350;10.102;2022-12-16T09:04:31;9.53;;;4.80;;
6292;SDS011;3179;54.350;10.102;2022-12-16T09:07:29;7.10;;;4.50;;
6292;SDS011;3179;54.350;10.102;2022-12-16T09:10:14;5.80;;;3.90;;
6292;SDS011;3179;54.350;10.102;2022-12-16T09:13:03;7.10;;;4.23;;
6292;SDS011;3179;54.350;10.102;2022-12-16T09:15:50;6.43;;;3.73;;
6292;SDS011;3179;54.350;10.102;2022-12-16T09:18:34;6.80;;;3.93;;
6292;SDS011;3179;54.350;10.102;2022-12-16T09:21:18;5.30;;;4.40;;
6292;SDS011;3179;54.350;10.102;2022-12-16T09:24:02;6.13;;;4.70;;
6292;SDS011;3179;54.350;10.102;2022-12-16T09:26:47;5.70;;;4.43;;
6292;SDS011;3179;54.350;10.102;2022-12-16T09:29:31;6.53;;;3.73;;
6292;SDS011;3179;54.350;10.102;2022-12-16T09:32:19;7.47;;;4.43;;
6292;SDS011;3179;54.350;10.102;2022-12-16T09:35:03;6.13;;;3.80;;
6292;SDS011;3179;54.350;10.102;2022-12-16T09:37:48;6.87;;;4.13;;
6292;SDS011;3179;54.350;10.102;2022-12-16T09:40:32;8.80;;;4.67;;
6292;SDS011;3179;54.350;10.102;2022-12-16T09:43:24;4.57;;;3.77;;
6292;SDS011;3179;54.350;10.102;2022-12-16T09:46:20;6.13;;;4.53;;
6292;SDS011;3179;54.350;10.102;2022-12-16T09:49:14;5.10;;;3.60;;
6292;SDS011;3179;54.350;10.102;2022-12-16T09:52:04;7.33;;;4.93;;
6292;SDS011;3179;54.350;10.102;2022-12-16T09:54:54;5.00;;;3.57;;
6292;SDS011;3179;54.350;10.102;2022-12-16T09:57:39;6.90;;;4.57;;
6292;SDS011;3179;54.350;10.102;2022-12-16T10:00:26;6.63;;;3.57;;
6292;SDS011;3179;54.350;10.102;2022-12-16T10:03:13;5.83;;;4.70;;
6292;SDS011;3179;54.350;10.102;2022-12-16T10:06:06;4.60;;;3.83;;
6292;SDS011;3179;54.350;10.102;2022-12-16T10:09:02;4.93;;;4.43;;
6292;SDS011;3179;54.350;10.102;2022-12-16T10:11:56;5.27;;;4.77;;
6292;SDS011;3179;54.350;10.102;2022-12-16T10:14:45;6.30;;;5.00;;
6292;SDS011;3179;54.350;10.102;2022-12-16T10:17:35;7.87;;;5.10;;
6292;SDS011;3179;54.350;10.102;2022-12-16T10:20:23;5.43;;;3.80;;
6292;SDS011;3179;54.350;10.102;2022-12-16T10:23:20;5.20;;;4.30;;
6292;SDS011;3179;54.350;10.102;2022-12-16T10:26:10;5.43;;;4.73;;
6292;SDS011;3179;54.350;10.102;2022-12-16T10:29:02;4.73;;;4.20;;
6292;SDS011;3179;54.350;10.102;2022-12-16T10:31:49;4.63;;;4.07;;
6292;SDS011;3179;54.350;10.102;2022-12-16T10:34:34;7.07;;;4.70;;
6292;SDS011;3179;54.350;10.102;2022-12-16T10:37:17;6.33;;;4.50;;
6292;SDS011;3179;54.350;10.102;2022-12-16T10:40:12;4.57;;;4.17;;
6292;SDS011;3179;54.350;10.102;2022-12-16T10:43:00;5.40;;;4.23;;
6292;SDS011;3179;54.350;10.102;2022-12-16T10:45:47;17.10;;;5.30;;
6292;SDS011;3179;54.350;10.102;2022-12-16T10:48:34;4.73;;;4.10;;
6292;SDS011;3179;54.350;10.102;2022-12-16T10:51:19;3.90;;;3.50;;
6292;SDS011;3179;54.350;10.102;2022-12-16T10:54:21;4.63;;;4.23;;
6292;SDS011;3179;54.350;10.102;2022-12-16T10:57:14;5.00;;;3.97;;
6292;SDS011;3179;54.350;10.102;2022-12-16T11:00:09;9.20;;;4.53;;
6292;SDS011;3179;54.350;10.102;2022-12-16T11:02:55;5.73;;;4.20;;
6292;SDS011;3179;54.350;10.102;2022-12-16T11:05:39;5.67;;;3.90;;
6292;SDS011;3179;54.350;10.102;2022-12-16T11:08:24;7.70;;;4.30;;
6292;SDS011;3179;54.350;10.102;2022-12-16T11:11:14;4.80;;;4.30;;
6292;SDS011;3179;54.350;10.102;2022-12-16T11:14:17;7.33;;;4.20;;
6292;SDS011;3179;54.350;10.102;2022-12-16T11:17:11;11.57;;;4.80;;
6292;SDS011;3179;54.350;10.102;2022-12-16T11:23:08;4.03;;;3.37;;
6292;SDS011;3179;54.350;10.102;2022-12-16T11:26:07;6.10;;;4.20;;
6292;SDS011;3179;54.350;10.102;2022-12-16T11:29:03;4.27;;;3.00;;
6292;SDS011;3179;54.350;10.102;2022-12-16T11:31:59;5.60;;;3.50;;
6292;SDS011;3179;54.350;10.102;2022-12-16T11:34:49;4.77;;;3.00;;
6292;SDS011;3179;54.350;10.102;2022-12-16T11:37:35;5.20;;;3.40;;
6292;SDS011;3179;54.350;10.102;2022-12-16T11:40:22;6.10;;;3.90;;
6292;SDS011;3179;54.350;10.102;2022-12-16T11:43:07;7.13;;;3.17;;
6292;SDS011;3179;54.350;10.102;2022-12-16T11:45:55;6.13;;;3.70;;
6292;SDS011;3179;54.350;10.102;2022-12-16T11:48:45;4.27;;;3.30;;
6292;SDS011;3179;54.350;10.102;2022-12-16T11:51:33;6.50;;;3.33;;
6292;SDS011;3179;54.350;10.102;2022-12-16T11:54:20;5.93;;;3.37;;
6292;SDS011;3179;54.350;10.102;2022-12-16T12:00:02;7.77;;;3.87;;
6292;SDS011;3179;54.350;10.102;2022-12-16T12:02:49;3.43;;;3.13;;
6292;SDS011;3179;54.350;10.102;2022-12-16T12:05:41;3.87;;;3.40;;
6292;SDS011;3179;54.350;10.102;2022-12-16T12:08:30;6.67;;;3.30;;
6292;SDS011;3179;54.350;10.102;2022-12-16T12:11:21;4.47;;;3.20;;
6292;SDS011;3179;54.350;10.102;2022-12-16T12:14:18;7.33;;;3.97;;
6292;SDS011;3179;54.350;10.102;2022-12-16T12:17:17;6.00;;;2.70;;
6292;SDS011;3179;54.350;10.102;2022-12-16T12:20:19;3.83;;;3.07;;
6292;SDS011;3179;54.350;10.102;2022-12-16T12:23:19;3.37;;;2.97;;
6292;SDS011;3179;54.350;10.102;2022-12-16T12:26:10;4.50;;;3.27;;
6292;SDS011;3179;54.350;10.102;2022-12-16T12:28:58;10.67;;;3.80;;
6292;SDS011;3179;54.350;10.102;2022-12-16T12:31:49;4.13;;;2.80;;
6292;SDS011;3179;54.350;10.102;2022-12-16T12:34:41;6.30;;;3.67;;
6292;SDS011;3179;54.350;10.102;2022-12-16T12:37:33;9.90;;;3.27;;
6292;SDS011;3179;54.350;10.102;2022-12-16T12:40:27;6.27;;;3.37;;
6292;SDS011;3179;54.350;10.102;2022-12-16T12:43:26;4.27;;;3.37;;
6292;SDS011;3179;54.350;10.102;2022-12-16T12:46:19;4.50;;;2.90;;
6292;SDS011;3179;54.350;10.102;2022-12-16T12:49:11;10.07;;;3.93;;
6292;SDS011;3179;54.350;10.102;2022-12-16T12:52:09;6.73;;;3.50;;
6292;SDS011;3179;54.350;10.102;2022-12-16T12:55:15;5.00;;;3.20;;
6292;SDS011;3179;54.350;10.102;2022-12-16T12:58:07;6.37;;;3.77;;
6292;SDS011;3179;54.350;10.102;2022-12-16T13:00:53;7.43;;;3.43;;
6292;SDS011;3179;54.350;10.102;2022-12-16T13:03:41;7.00;;;3.23;;
6292;SDS011;3179;54.350;10.102;2022-12-16T13:06:29;11.07;;;2.80;;
6292;SDS011;3179;54.350;10.102;2022-12-16T13:09:27;5.97;;;3.53;;
6292;SDS011;3179;54.350;10.102;2022-12-16T13:12:21;5.10;;;3.27;;
6292;SDS011;3179;54.350;10.102;2022-12-16T13:15:09;6.10;;;3.70;;
6292;SDS011;3179;54.350;10.102;2022-12-16T13:21:41;3.00;;;2.63;;
6292;SDS011;3179;54.350;10.102;2022-12-16T13:24:45;7.23;;;3.80;;
6292;SDS011;3179;54.350;10.102;2022-12-16T13:27:44;7.00;;;3.43;;
6292;SDS011;3179;54.350;10.102;2022-12-16T13:30:33;4.20;;;3.10;;
6292;SDS011;3179;54.350;10.102;2022-12-16T13:33:27;4.80;;;3.40;;
6292;SDS011;3179;54.350;10.102;2022-12-16T13:36:15;5.20;;;3.43;;
6292;SDS011;3179;54.350;10.102;2022-12-16T13:39:06;4.57;;;3.40;;
6292;SDS011;3179;54.350;10.102;2022-12-16T13:42:29;5.60;;;3.00;;
6292;SDS011;3179;54.350;10.102;2022-12-16T13:45:31;4.10;;;2.90;;
6292;SDS011;3179;54.350;10.102;2022-12-16T13:48:32;4.03;;;3.00;;
6292;SDS011;3179;54.350;10.102;2022-12-16T13:54:51;8.90;;;3.80;;
6292;SDS011;3179;54.350;10.102;2022-12-16T13:57:45;9.57;;;4.60;;
6292;SDS011;3179;54.350;10.102;2022-12-16T14:00:31;6.03;;;4.03;;
6292;SDS011;3179;54.350;10.102;2022-12-16T14:03:22;5.07;;;3.70;;
6292;SDS011;3179;54.350;10.102;2022-12-16T14:06:21;5.37;;;3.90;;
6292;SDS011;3179;54.350;10.102;2022-12-16T14:09:13;7.10;;;4.10;;
6292;SDS011;3179;54.350;10.102;2022-12-16T14:12:08;6.00;;;3.50;;
6292;SDS011;3179;54.350;10.102;2022-12-16T14:15:00;6.00;;;3.93;;
6292;SDS011;3179;54.350;10.102;2022-12-16T14:17:50;6.40;;;3.53;;
6292;SDS011;3179;54.350;10.102;2022-12-16T14:20:42;4.70;;;4.03;;
6292;SDS011;3179;54.350;10.102;2022-12-16T14:23:34;6.70;;;4.93;;
6292;SDS011;3179;54.350;10.102;2022-12-16T14:26:23;3.97;;;3.60;;
6292;SDS011;3179;54.350;10.102;2022-12-16T14:29:14;6.50;;;4.43;;
6292;SDS011;3179;54.350;10.102;2022-12-16T14:32:16;5.43;;;4.23;;
6292;SDS011;3179;54.350;10.102;2022-12-16T14:35:02;5.90;;;4.10;;
6292;SDS011;3179;54.350;10.102;2022-12-16T14:37:48;6.53;;;4.20;;
6292;SDS011;3179;54.350;10.102;2022-12-16T14:40:32;6.07;;;4.80;;
6292;SDS011;3179;54.350;10.102;2022-12-16T14:43:18;9.03;;;4.40;;
6292;SDS011;3179;54.350;10.102;2022-12-16T14:46:03;8.10;;;4.60;;
6292;SDS011;3179;54.350;10.102;2022-12-16T14:48:48;13.67;;;5.67;;
6292;SDS011;3179;54.350;10.102;2022-12-16T14:51:34;11.70;;;6.70;;
6292;SDS011;3179;54.350;10.102;2022-12-16T14:54:34;8.57;;;4.90;;
6292;SDS011;3179;54.350;10.102;2022-12-16T14:57:20;8.47;;;4.10;;
6292;SDS011;3179;54.350;10.102;2022-12-16T15:00:10;7.77;;;4.17;;
6292;SDS011;3179;54.350;10.102;2022-12-16T15:02:58;9.73;;;4.50;;
6292;SDS011;3179;54.350;10.102;2022-12-16T15:05:50;8.83;;;4.10;;
6292;SDS011;3179;54.350;10.102;2022-12-16T15:08:36;7.53;;;4.20;;
6292;SDS011;3179;54.350;10.102;2022-12-16T15:11:31;9.73;;;3.63;;
6292;SDS011;3179;54.350;10.102;2022-12-16T15:14:17;6.10;;;4.40;;
6292;SDS011;3179;54.350;10.102;2022-12-16T15:17:14;5.07;;;3.60;;
6292;SDS011;3179;54.350;10.102;2022-12-16T15:20:02;8.30;;;4.17;;
6292;SDS011;3179;54.350;10.102;2022-12-16T15:22:48;6.37;;;4.40;;
6292;SDS011;3179;54.350;10.102;2022-12-16T15:25:32;8.53;;;4.10;;
6292;SDS011;3179;54.350;10.102;2022-12-16T15:28:24;7.60;;;4.73;;
6292;SDS011;3179;54.350;10.102;2022-12-16T15:31:22;5.77;;;3.93;;
6292;SDS011;3179;54.350;10.102;2022-12-16T15:34:24;9.43;;;4.53;;
6292;SDS011;3179;54.350;10.102;2022-12-16T15:37:15;4.97;;;4.23;;
6292;SDS011;3179;54.350;10.102;2022-12-16T15:40:01;5.77;;;4.40;;
6292;SDS011;3179;54.350;10.102;2022-12-16T15:42:48;4.57;;;3.73;;
6292;SDS011;3179;54.350;10.102;2022-12-16T15:45:35;6.37;;;4.80;;
6292;SDS011;3179;54.350;10.102;2022-12-16T15:48:20;6.90;;;4.63;;
6292;SDS011;3179;54.350;10.102;2022-12-16T15:51:18;8.80;;;5.27;;
6292;SDS011;3179;54.350;10.102;2022-12-16T15:54:04;10.57;;;6.57;;
6292;SDS011;3179;54.350;10.102;2022-12-16T15:56:48;10.27;;;7.40;;
6292;SDS011;3179;54.350;10.102;2022-12-16T15:59:33;14.13;;;7.07;;
6292;SDS011;3179;54.350;10.102;2022-12-16T16:02:20;22.30;;;9.97;;
6292;SDS011;3179;54.350;10.102;2022-12-16T16:05:09;57.93;;;19.40;;
6292;SDS011;3179;54.350;10.102;2022-12-16T16:07:55;30.03;;;14.30;;
6292;SDS011;3179;54.350;10.102;2022-12-16T16:10:40;17.63;;;9.27;;
6292;SDS011;3179;54.350;10.102;2022-12-16T16:13:25;17.60;;;9.60;;
6292;SDS011;3179;54.350;10.102;2022-12-16T16:16:09;17.30;;;8.77;;
6292;SDS011;3179;54.350;10.102;2022-12-16T16:18:56;19.67;;;9.67;;
6292;SDS011;3179;54.350;10.102;2022-12-16T16:21:41;16.93;;;9.80;;
6292;SDS011;3179;54.350;10.102;2022-12-16T16:24:25;14.30;;;8.50;;
6292;SDS011;3179;54.350;10.102;2022-12-16T16:27:10;16.30;;;8.27;;
6292;SDS011;3179;54.350;10.102;2022-12-16T16:29:55;16.23;;;9.50;;
6292;SDS011;3179;54.350;10.102;2022-12-16T16:32:41;15.80;;;9.13;;
6292;SDS011;3179;54.350;10.102;2022-12-16T16:35:26;15.27;;;8.80;;
6292;SDS011;3179;54.350;10.102;2022-12-16T16:38:10;14.80;;;9.10;;
6292;SDS011;3179;54.350;10.102;2022-12-16T16:40:55;14.60;;;8.63;;
6292;SDS011;3179;54.350;10.102;2022-12-16T16:43:40;16.83;;;8.67;;
6292;SDS011;3179;54.350;10.102;2022-12-16T16:46:30;15.00;;;7.67;;
6292;SDS011;3179;54.350;10.102;2022-12-16T16:49:20;9.10;;;6.13;;